Time;durP1;ratioP1;P1;durP2;ratioP2;P2;SDS_P1;SDS_P2;PMS_P1;PMS_P2;Temp;Humidity;BMP_temperature;BMP_pressure;BME280_temperature;BME280_humidity;BME280_pressure;Samples;Min_cycle;Max_cycle;Signal;HPM_P1;HPM_P2
2024/03/04 00:02:27;;;;;;;9.10;2.20;;;;;;;5.33;55.67;100848.80;108685;1258;61797;-57
2024/03/04 00:04:54;;;;;;;7.30;2.60;;;;;;;5.40;55.54;100848.95;108742;1254;64500;-57
2024/03/04 00:07:25;;;;;;;7.70;2.40;;;;;;;5.50;55.48;100847.79;108661;1259;58417;-56
2024/03/04 00:09:53;;;;;;;8.40;2.00;;;;;;;5.59;55.48;100846.59;108648;1252;61466;-56
2024/03/04 00:12:21;;;;;;;5.10;2.30;;;;;;;5.71;55.53;100843.89;106157;1254;65144;-58
2024/03/04 00:14:49;;;;;;;6.20;2.00;;;;;;;5.84;55.31;100844.09;108688;1254;60261;-56
2024/03/04 00:17:16;;;;;;;11.00;6.60;;;;;;;5.91;55.23;100840.73;108782;1253;64448;-56
2024/03/04 00:19:44;;;;;;;6.40;2.80;;;;;;;5.93;55.00;100837.52;105149;1259;60505;-57
2024/03/04 00:22:13;;;;;;;7.70;2.90;;;;;;;5.93;54.88;100841.37;104221;1254;60530;-57
2024/03/04 00:24:40;;;;;;;6.70;3.40;;;;;;;5.92;54.82;100838.95;108820;1254;63711;-58
2024/03/04 00:27:08;;;;;;;7.30;3.50;;;;;;;5.91;54.72;100840.77;104409;1254;61553;-57
2024/03/04 00:29:36;;;;;;;10.80;2.90;;;;;;;5.87;54.63;100838.86;108716;1254;63842;-58
2024/03/04 00:32:04;;;;;;;9.10;3.40;;;;;;;5.82;54.63;100843.46;108160;1259;61210;-58
2024/03/04 00:34:32;;;;;;;9.80;3.00;;;;;;;5.79;54.63;100845.55;108663;1253;58750;-58
2024/03/04 00:37:02;;;;;;;7.00;2.60;;;;;;;5.75;54.66;100840.38;108693;1253;68023;-58
2024/03/04 00:39:30;;;;;;;8.20;3.70;;;;;;;5.70;54.75;100833.47;108567;1254;60247;-58
2024/03/04 00:41:58;;;;;;;8.60;3.40;;;;;;;5.69;54.74;100833.38;108834;1254;64176;-58
2024/03/04 00:44:25;;;;;;;7.30;3.70;;;;;;;5.67;54.67;100836.09;104863;1254;60655;-56
2024/03/04 00:46:54;;;;;;;8.80;2.90;;;;;;;5.65;54.70;100840.75;104379;1254;62805;-60
2024/03/04 00:49:21;;;;;;;10.50;3.10;;;;;;;5.59;54.81;100836.52;104126;1254;73940;-60
2024/03/04 00:51:49;;;;;;;8.20;2.50;;;;;;;5.55;54.90;100844.72;104419;1257;60444;-58
2024/03/04 00:54:18;;;;;;;12.80;3.20;;;;;;;5.50;54.95;100839.91;106568;1257;62521;-58
2024/03/04 00:56:45;;;;;;;9.70;3.60;;;;;;;5.46;55.05;100838.41;108753;1254;58436;-59
2024/03/04 00:59:13;;;;;;;10.70;2.60;;;;;;;5.41;55.05;100836.57;108747;1252;58922;-59
2024/03/04 01:01:40;;;;;;;8.60;3.50;;;;;;;5.37;55.16;100835.55;107141;1254;66217;-58
2024/03/04 01:04:08;;;;;;;6.00;2.60;;;;;;;5.40;55.07;100837.48;104395;1257;63346;-57
2024/03/04 01:06:38;;;;;;;7.50;2.40;;;;;;;5.46;55.01;100842.05;104280;1260;62622;-57
2024/03/04 01:09:06;;;;;;;7.90;2.20;;;;;;;5.54;54.97;100841.32;104381;1254;61197;-58
2024/03/04 01:11:33;;;;;;;7.20;2.60;;;;;;;5.60;54.92;100840.29;108573;1254;62337;-58
2024/03/04 01:14:01;;;;;;;8.80;3.40;;;;;;;5.65;54.89;100834.12;108635;1253;64098;-58
2024/03/04 01:16:30;;;;;;;9.60;3.30;;;;;;;5.69;54.86;100828.48;108700;1253;64046;-58
2024/03/04 01:18:59;;;;;;;8.40;3.20;;;;;;;5.71;54.85;100829.11;108807;1254;64814;-57
2024/03/04 01:21:27;;;;;;;9.30;5.10;;;;;;;5.73;54.76;100827.92;108657;1254;59180;-58
2024/03/04 01:23:56;;;;;;;10.60;4.90;;;;;;;5.70;54.74;100826.52;106688;1253;60453;-58
2024/03/04 01:26:24;;;;;;;11.10;3.20;;;;;;;5.66;54.70;100832.48;108658;1256;65016;-59
2024/03/04 01:28:52;;;;;;;7.90;3.10;;;;;;;5.63;54.74;100835.24;108822;1254;60290;-58
2024/03/04 01:31:21;;;;;;;10.70;4.40;;;;;;;5.59;54.70;100836.69;108619;1254;64757;-58
2024/03/04 01:33:49;;;;;;;9.60;3.60;;;;;;;5.53;54.68;100838.88;108698;1254;59171;-58
2024/03/04 01:36:17;;;;;;;9.50;3.50;;;;;;;5.50;54.83;100839.92;105160;1254;60437;-58
2024/03/04 01:38:45;;;;;;;10.70;5.20;;;;;;;5.46;54.81;100841.18;108862;1253;67232;-58
2024/03/04 01:41:13;;;;;;;11.80;5.60;;;;;;;5.41;54.89;100839.66;108844;1253;61511;-58
2024/03/04 01:43:40;;;;;;;13.00;4.00;;;;;;;5.38;55.05;100840.54;108706;1253;62582;-58
2024/03/04 01:46:08;;;;;;;8.40;3.50;;;;;;;5.38;55.13;100839.84;104429;1256;60322;-57
2024/03/04 01:48:36;;;;;;;10.40;4.00;;;;;;;5.38;55.29;100841.22;108671;1254;58837;-58
2024/03/04 01:51:03;;;;;;;11.20;4.10;;;;;;;5.34;55.28;100841.23;108366;1256;63693;-60
2024/03/04 01:53:31;;;;;;;11.20;3.70;;;;;;;5.31;55.39;100843.50;104423;1253;60381;-57
2024/03/04 01:56:03;;;;;;;9.80;3.80;;;;;;;5.28;55.52;100843.13;108676;1257;64314;-58
2024/03/04 01:58:31;;;;;;;8.20;3.40;;;;;;;5.27;55.58;100846.31;108564;1256;60294;-57
2024/03/04 02:00:59;;;;;;;12.00;3.60;;;;;;;5.30;55.50;100845.11;108716;1253;59231;-58
2024/03/04 02:03:29;;;;;;;8.50;3.60;;;;;;;5.37;55.48;100844.40;108684;1253;65087;-57
2024/03/04 02:05:56;;;;;;;7.70;2.80;;;;;;;5.45;55.32;100846.25;105859;1254;62036;-59
2024/03/04 02:08:24;;;;;;;8.90;3.00;;;;;;;5.53;55.29;100845.50;104300;1254;62520;-58
2024/03/04 02:10:52;;;;;;;12.30;3.50;;;;;;;5.61;55.19;100847.55;104331;1257;60614;-58
2024/03/04 02:13:20;;;;;;;8.00;3.90;;;;;;;5.64;55.12;100845.29;106065;1254;61964;-58
2024/03/04 02:15:48;;;;;;;9.10;3.40;;;;;;;5.65;55.10;100845.07;104969;1257;65008;-58
2024/03/04 02:18:19;;;;;;;8.40;3.00;;;;;;;5.68;54.98;100843.89;106972;1254;72425;-59
2024/03/04 02:20:47;;;;;;;8.10;3.70;;;;;;;5.65;54.93;100846.11;104455;1254;64770;-60
2024/03/04 02:23:14;;;;;;;9.40;3.90;;;;;;;5.62;54.86;100847.02;104152;1257;61654;-59
2024/03/04 02:25:56;;;;;;;7.90;3.40;;;;;;;5.59;54.90;100848.88;104415;1257;61115;-58
2024/03/04 02:28:27;;;;;;;11.30;4.90;;;;;;;5.55;54.88;100849.42;106735;1253;63726;-57
2024/03/04 02:30:59;;;;;;;7.80;3.40;;;;;;;5.47;54.77;100849.98;108851;1254;60251;-57
2024/03/04 02:33:28;;;;;;;11.60;4.60;;;;;;;5.41;54.80;100857.98;108542;1257;62536;-58
2024/03/04 02:35:55;;;;;;;9.10;4.80;;;;;;;5.34;54.87;100861.45;106379;1254;59240;-58
2024/03/04 02:38:23;;;;;;;7.60;3.00;;;;;;;5.30;54.94;100861.98;107741;1254;59589;-58
2024/03/04 02:40:51;;;;;;;9.40;4.50;;;;;;;5.28;54.89;100861.38;104387;1254;66588;-58
2024/03/04 02:43:18;;;;;;;10.00;3.80;;;;;;;5.25;54.96;100859.29;104279;1259;61559;-58
2024/03/04 02:45:46;;;;;;;9.60;4.10;;;;;;;5.20;55.07;100861.64;108819;1253;62605;-59
2024/03/04 02:48:14;;;;;;;9.10;3.80;;;;;;;5.16;55.04;100862.01;108851;1253;60383;-59
2024/03/04 02:50:41;;;;;;;9.70;4.20;;;;;;;5.13;55.07;100863.71;108489;1254;367149;-58
2024/03/04 02:55:16;;;;;;;8.30;3.60;;;;;;;4.73;56.28;100866.16;101442;1292;601285;-59
2024/03/04 02:57:44;;;;;;;10.30;3.30;;;;;;;5.00;55.47;100862.42;103393;1267;59795;-59
2024/03/04 03:00:12;;;;;;;7.50;2.30;;;;;;;5.07;55.29;100860.16;106620;1265;58909;-59
2024/03/04 03:02:39;;;;;;;7.20;2.70;;;;;;;5.15;55.19;100863.98;103675;1267;62303;-59
2024/03/04 03:05:07;;;;;;;7.70;3.00;;;;;;;5.20;55.18;100863.51;103472;1267;63317;-59
2024/03/04 03:07:35;;;;;;;10.50;3.20;;;;;;;5.28;55.25;100864.01;107921;1265;64468;-59
2024/03/04 03:10:03;;;;;;;7.60;2.70;;;;;;;5.37;55.26;100862.48;104732;1257;178785;-59
2024/03/04 03:12:32;;;;;;;11.00;4.30;;;;;;;5.45;55.15;100861.39;104421;1252;59401;-58
2024/03/04 03:15:00;;;;;;;9.70;3.90;;;;;;;5.50;54.95;100862.90;104378;1254;62302;-58
2024/03/04 03:17:28;;;;;;;8.30;4.20;;;;;;;5.51;55.00;100864.10;104310;1254;60248;-57
2024/03/04 03:19:55;;;;;;;8.80;3.70;;;;;;;5.49;54.90;100869.40;104295;1253;62540;-56
2024/03/04 03:22:23;;;;;;;10.70;3.70;;;;;;;5.45;54.86;100870.83;104384;1254;59695;-56
2024/03/04 03:24:51;;;;;;;9.10;4.00;;;;;;;5.44;54.77;100872.43;104337;1258;60159;-56
2024/03/04 03:27:18;;;;;;;9.20;3.90;;;;;;;5.41;54.78;100871.87;104420;1252;62902;-57
2024/03/04 03:29:46;;;;;;;9.00;4.70;;;;;;;5.39;54.72;100873.91;104313;1254;61722;-57
2024/03/04 03:32:14;;;;;;;10.00;3.70;;;;;;;5.34;54.75;100874.15;104304;1254;62617;-57
2024/03/04 03:34:41;;;;;;;8.60;4.20;;;;;;;5.29;54.74;100874.03;104241;1254;59777;-56
2024/03/04 03:37:09;;;;;;;9.60;3.80;;;;;;;5.24;54.65;100869.94;108738;1256;59241;-57
2024/03/04 03:39:36;;;;;;;12.00;4.30;;;;;;;5.20;54.74;100868.93;108796;1254;64222;-58
2024/03/04 03:42:07;;;;;;;10.40;4.10;;;;;;;5.17;54.70;100869.92;108824;1254;61524;-58
2024/03/04 03:44:35;;;;;;;8.60;3.80;;;;;;;5.15;54.64;100871.64;108821;1254;64683;-59
2024/03/04 03:47:03;;;;;;;9.00;3.50;;;;;;;5.10;54.72;100870.48;107467;1257;59724;-59
2024/03/04 03:49:30;;;;;;;10.80;5.30;;;;;;;5.07;54.71;100869.38;108924;1253;58036;-59
2024/03/04 03:51:58;;;;;;;9.60;4.70;;;;;;;5.06;54.85;100871.20;108765;1253;64315;-58
2024/03/04 03:54:25;;;;;;;9.70;4.20;;;;;;;5.02;54.80;100871.02;108706;1253;60305;-58
2024/03/04 03:56:53;;;;;;;8.70;4.00;;;;;;;4.99;54.91;100868.76;104402;1256;62525;-57
2024/03/04 03:59:21;;;;;;;10.80;4.10;;;;;;;4.96;54.88;100872.52;104542;1253;59782;-56
2024/03/04 04:01:48;;;;;;;9.90;4.90;;;;;;;4.93;54.89;100870.92;104524;1253;59861;-58
2024/03/04 04:04:17;;;;;;;7.70;3.30;;;;;;;4.89;54.94;100873.08;104405;1252;65034;-57
2024/03/04 04:06:45;;;;;;;8.40;2.80;;;;;;;4.86;54.91;100875.29;104417;1259;61541;-57
2024/03/04 04:09:13;;;;;;;7.90;2.60;;;;;;;4.88;54.84;100877.98;104356;1254;62553;-57
2024/03/04 04:11:43;;;;;;;13.00;3.60;;;;;;;4.91;54.83;100881.14;104418;1257;59768;-56
2024/03/04 04:14:10;;;;;;;7.50;4.10;;;;;;;4.93;54.85;100880.16;107106;1254;59532;-57
2024/03/04 04:16:38;;;;;;;9.80;2.50;;;;;;;4.97;54.83;100881.89;104385;1257;66243;-57
2024/03/04 04:19:06;;;;;;;10.30;3.90;;;;;;;4.98;54.85;100884.25;107318;1254;60265;-58
2024/03/04 04:21:34;;;;;;;9.30;3.40;;;;;;;4.98;54.98;100885.11;104267;1254;64201;-58
2024/03/04 04:24:02;;;;;;;11.50;3.70;;;;;;;4.99;54.96;100885.94;104311;1259;60617;-59
2024/03/04 04:26:29;;;;;;;8.70;3.60;;;;;;;4.99;54.85;100892.35;108813;1254;59276;-58
2024/03/04 04:28:57;;;;;;;13.40;4.70;;;;;;;5.00;54.80;100893.39;107645;1257;64210;-58
2024/03/04 04:31:24;;;;;;;6.60;3.10;;;;;;;4.97;54.74;100894.24;104304;1254;64004;-58
2024/03/04 04:33:52;;;;;;;8.70;3.10;;;;;;;4.93;54.72;100897.05;104312;1254;63812;-57
2024/03/04 04:36:20;;;;;;;6.40;3.10;;;;;;;4.87;54.70;100901.64;106979;1258;60332;-57
2024/03/04 04:38:48;;;;;;;7.60;3.50;;;;;;;4.82;54.67;100902.95;104219;1257;59877;-57
2024/03/04 04:41:16;;;;;;;8.00;3.30;;;;;;;4.76;54.77;100902.86;104230;1254;62941;-56
2024/03/04 04:43:43;;;;;;;7.90;3.10;;;;;;;4.72;54.90;100902.52;104298;1254;60333;-57
2024/03/04 04:46:11;;;;;;;10.40;4.10;;;;;;;4.71;55.01;100902.23;104179;1254;64616;-58
2024/03/04 04:48:38;;;;;;;8.50;3.20;;;;;;;4.69;55.02;100901.11;104350;1254;61724;-58
2024/03/04 04:51:06;;;;;;;9.40;4.10;;;;;;;4.67;55.08;100900.71;104321;1254;60600;-58
2024/03/04 04:53:33;;;;;;;11.80;3.60;;;;;;;4.64;55.17;100902.75;104636;1254;64200;-59
2024/03/04 04:56:01;;;;;;;10.70;4.90;;;;;;;4.62;55.13;100905.23;104225;1257;61433;-58
2024/03/04 04:58:29;;;;;;;17.00;4.20;;;;;;;4.61;55.27;100906.03;104200;1258;63783;-58
2024/03/04 05:00:57;;;;;;;8.10;3.90;;;;;;;4.59;55.31;100904.19;104357;1252;60910;-58
2024/03/04 05:03:25;;;;;;;10.10;4.20;;;;;;;4.58;55.42;100900.08;104301;1253;59522;-58
2024/03/04 05:06:14;;;;;;;6.70;2.90;;;;;;;4.62;55.36;100898.13;108746;1254;64209;-58
2024/03/04 05:08:42;;;;;;;8.20;3.10;;;;;;;4.73;55.23;100897.28;108751;1254;61808;-58
2024/03/04 05:11:09;;;;;;;12.00;4.60;;;;;;;4.85;55.12;100898.81;108777;1253;63828;-58
2024/03/04 05:13:37;;;;;;;7.60;2.80;;;;;;;4.99;55.01;100897.95;106473;1258;59621;-58
2024/03/04 05:16:05;;;;;;;8.40;3.70;;;;;;;5.12;54.85;100899.41;108737;1256;60243;-58
2024/03/04 05:18:33;;;;;;;7.90;4.00;;;;;;;5.24;54.83;100899.20;105528;1254;64190;-57
2024/03/04 05:21:03;;;;;;;10.10;4.10;;;;;;;5.32;54.70;100898.63;104437;1256;60249;-57
2024/03/04 05:23:31;;;;;;;10.60;4.60;;;;;;;5.38;54.46;100898.14;104269;1254;62523;-59
2024/03/04 05:25:59;;;;;;;12.30;3.70;;;;;;;5.42;54.27;100897.95;104341;1259;59756;-56
2024/03/04 05:28:27;;;;;;;9.60;4.40;;;;;;;5.45;54.13;100895.36;104352;1254;62668;-55
2024/03/04 05:30:57;;;;;;;8.50;4.40;;;;;;;5.46;54.07;100894.60;104359;1254;64604;-57
2024/03/04 05:33:24;;;;;;;6.80;3.70;;;;;;;5.47;53.94;100897.84;104274;1259;69240;-59
2024/03/04 05:35:52;;;;;;;9.90;5.00;;;;;;;5.46;53.85;100895.10;104294;1254;62528;-58
2024/03/04 05:38:20;;;;;;;8.90;4.30;;;;;;;5.44;53.80;100895.77;106110;1254;59653;-59
2024/03/04 05:40:47;;;;;;;11.30;5.00;;;;;;;5.42;53.89;100895.33;108717;1254;57570;-60
2024/03/04 05:43:15;;;;;;;11.60;5.80;;;;;;;5.43;53.91;100895.10;106148;1254;65006;-60
2024/03/04 05:45:43;;;;;;;10.40;5.10;;;;;;;5.44;53.89;100897.35;104291;1256;60241;-52
2024/03/04 05:48:11;;;;;;;11.80;5.10;;;;;;;5.43;53.83;100897.40;104301;1256;63881;-52
2024/03/04 05:50:38;;;;;;;10.80;5.80;;;;;;;5.42;53.85;100902.10;106357;1254;59765;-63
2024/03/04 05:53:06;;;;;;;11.30;4.40;;;;;;;5.44;53.96;100906.91;107506;1254;59643;-56
2024/03/04 05:55:35;;;;;;;11.60;5.10;;;;;;;5.44;53.99;100908.64;104325;1252;62898;-56
2024/03/04 05:58:03;;;;;;;10.20;4.80;;;;;;;5.44;53.84;100911.58;108777;1254;60270;-54
2024/03/04 06:00:32;;;;;;;11.10;4.60;;;;;;;5.44;53.89;100910.20;107522;1254;62534;-55
2024/03/04 06:03:00;;;;;;;12.20;5.20;;;;;;;5.47;53.95;100914.23;108709;1253;60000;-59
2024/03/04 06:05:27;;;;;;;9.60;5.20;;;;;;;5.50;53.89;100915.98;108719;1254;58371;-54
2024/03/04 06:07:58;;;;;;;9.90;4.70;;;;;;;5.54;53.94;100916.98;108752;1252;64248;-58
2024/03/04 06:10:27;;;;;;;9.00;3.90;;;;;;;5.65;53.91;100920.27;108708;1254;60327;-58
2024/03/04 06:12:55;;;;;;;8.60;3.20;;;;;;;5.80;53.70;100920.39;108715;1252;62644;-61
2024/03/04 06:15:22;;;;;;;10.70;4.10;;;;;;;5.93;53.61;100917.96;108645;1258;59558;-60
2024/03/04 06:17:50;;;;;;;18.80;10.80;;;;;;;6.07;53.51;100915.15;104229;1254;59795;-59
2024/03/04 06:20:17;;;;;;;10.30;4.80;;;;;;;6.22;53.41;100916.64;104257;1260;64217;-60
2024/03/04 06:22:45;;;;;;;11.70;5.30;;;;;;;6.33;53.29;100915.00;104247;1253;64403;-59
2024/03/04 06:25:12;;;;;;;12.40;4.60;;;;;;;6.43;53.06;100917.81;104192;1254;62549;-58
2024/03/04 06:27:40;;;;;;;10.30;5.40;;;;;;;6.47;52.69;100921.03;104151;1254;60317;-59
2024/03/04 06:30:12;;;;;;;11.10;4.90;;;;;;;6.49;52.50;100925.45;104199;1254;60330;-61
2024/03/04 06:32:40;;;;;;;18.90;4.60;;;;;;;6.50;52.31;100923.83;108729;1254;63280;-60
2024/03/04 06:35:08;;;;;;;12.00;5.70;;;;;;;6.53;52.39;100927.90;108744;1254;62045;-60
2024/03/04 06:37:36;;;;;;;10.20;4.90;;;;;;;6.56;52.26;100929.64;108789;1254;63963;-62
2024/03/04 06:40:04;;;;;;;21.20;12.20;;;;;;;6.58;52.33;100925.19;108658;1254;57625;-59
2024/03/04 06:42:33;;;;;;;12.50;6.00;;;;;;;6.61;52.17;100927.61;106505;1254;59567;-60
2024/03/04 06:45:01;;;;;;;13.30;4.90;;;;;;;6.64;52.12;100925.02;108881;1253;64150;-58
2024/03/04 06:47:28;;;;;;;10.30;4.90;;;;;;;6.67;52.04;100921.36;105853;1256;60271;-60
2024/03/04 06:49:56;;;;;;;9.70;5.30;;;;;;;6.69;51.85;100918.32;104277;1256;64674;-60
2024/03/04 06:52:23;;;;;;;10.50;5.40;;;;;;;6.70;51.82;100922.44;104290;1254;59624;-59
2024/03/04 06:54:51;;;;;;;12.60;5.60;;;;;;;6.70;51.84;100919.96;104597;1254;59821;-60
2024/03/04 06:57:19;;;;;;;22.20;13.10;;;;;;;6.70;51.73;100919.27;104270;1254;62912;-59
2024/03/04 06:59:46;;;;;;;10.90;5.40;;;;;;;6.69;51.74;100918.43;104310;1253;60436;-59
2024/03/04 07:02:14;;;;;;;9.60;5.10;;;;;;;6.71;51.74;100915.06;104260;1258;64976;-59
2024/03/04 07:04:42;;;;;;;11.20;6.40;;;;;;;6.71;51.66;100909.29;104285;1254;60620;-61
2024/03/04 07:07:10;;;;;;;8.70;4.40;;;;;;;6.72;51.59;100905.40;108745;1259;60318;-62
2024/03/04 07:09:37;;;;;;;13.20;5.20;;;;;;;6.74;51.55;100908.98;108764;1254;63762;-61
2024/03/04 07:12:06;;;;;;;11.00;5.60;;;;;;;6.79;51.50;100911.31;108739;1253;61581;-59
2024/03/04 07:14:33;;;;;;;13.60;6.10;;;;;;;6.86;51.72;100913.35;108767;1254;66922;-57
2024/03/04 07:17:01;;;;;;;12.10;5.80;;;;;;;6.94;51.65;100917.30;108702;1254;60335;-55
2024/03/04 07:19:29;;;;;;;21.10;13.40;;;;;;;7.02;51.51;100917.17;108732;1259;60077;-60
2024/03/04 07:21:56;;;;;;;9.40;4.20;;;;;;;7.12;51.53;100916.77;108743;1259;67358;-57
2024/03/04 07:24:24;;;;;;;10.00;5.70;;;;;;;7.26;51.27;100917.70;108820;1253;60351;-56
2024/03/04 07:26:51;;;;;;;11.10;6.10;;;;;;;7.43;50.98;100914.64;108758;1254;63894;-55
2024/03/04 07:29:19;;;;;;;12.80;4.30;;;;;;;7.60;50.69;100912.79;108749;1259;58658;-56
2024/03/04 07:32:02;;;;;;;18.60;11.90;;;;;;;7.78;50.18;100914.50;108672;1253;60137;-56
2024/03/04 07:34:29;;;;;;;13.40;6.50;;;;;;;7.89;49.89;100914.39;108699;1259;65031;-57
2024/03/04 07:36:57;;;;;;;21.70;14.30;;;;;;;7.94;49.55;100915.25;108701;1256;62473;-57
2024/03/04 07:39:25;;;;;;;17.10;8.00;;;;;;;7.99;49.09;100912.73;108688;1254;65442;-57
2024/03/04 07:41:52;;;;;;;18.70;13.70;;;;;;;8.03;48.78;100911.98;108710;1254;60263;-56
2024/03/04 07:44:20;;;;;;;14.10;8.30;;;;;;;8.05;48.69;100915.16;108847;1252;58703;-56
2024/03/04 07:46:48;;;;;;;16.60;7.10;;;;;;;8.05;48.54;100915.35;108694;1254;63850;-58
2024/03/04 07:49:18;;;;;;;20.50;14.80;;;;;;;8.06;48.49;100915.77;108760;1258;61573;-58
2024/03/04 07:51:45;;;;;;;15.30;7.30;;;;;;;8.09;48.44;100916.11;108725;1253;64862;-58
2024/03/04 07:54:13;;;;;;;23.70;15.80;;;;;;;8.16;48.44;100911.17;105556;1257;60575;-58
2024/03/04 07:56:41;;;;;;;15.60;6.50;;;;;;;8.21;48.27;100909.64;104384;1254;60533;-58
2024/03/04 07:59:08;;;;;;;17.40;8.50;;;;;;;8.23;48.20;100908.62;104259;1254;63752;-58
2024/03/04 08:01:48;;;;;;;22.60;16.00;;;;;;;8.24;48.28;100910.50;104222;1254;61653;-58
2024/03/04 08:04:17;;;;;;;14.10;6.90;;;;;;;8.26;48.06;100905.63;104269;1254;63835;-57
2024/03/04 08:06:44;;;;;;;26.40;16.70;;;;;;;8.27;47.89;100901.24;108757;1253;60023;-59
2024/03/04 08:09:14;;;;;;;15.80;7.80;;;;;;;8.27;47.92;100900.15;108767;1254;58611;-58
2024/03/04 08:11:41;;;;;;;19.20;8.30;;;;;;;8.29;47.96;100900.02;108732;1254;65086;-56
2024/03/04 08:14:09;;;;;;;24.40;17.80;;;;;;;8.33;47.77;100898.73;108728;1254;60342;-59
2024/03/04 08:16:40;;;;;;;18.50;7.50;;;;;;;8.38;47.80;100895.63;108878;1253;63881;-58
2024/03/04 08:19:11;;;;;;;16.10;9.20;;;;;;;8.44;47.72;100892.14;108745;1259;58938;-59
2024/03/04 08:21:39;;;;;;;19.60;7.60;;;;;;;8.49;47.58;100888.71;108762;1254;58841;-59
2024/03/04 08:24:07;;;;;;;13.30;6.80;;;;;;;8.53;47.38;100891.27;108771;1254;65916;-58
2024/03/04 08:26:35;;;;;;;23.90;17.50;;;;;;;8.57;47.40;100888.36;108862;1254;60302;-56
2024/03/04 08:29:02;;;;;;;15.60;7.60;;;;;;;8.61;47.16;100887.25;104618;1254;64255;-59
2024/03/04 08:31:31;;;;;;;15.20;7.60;;;;;;;8.61;47.16;100886.88;104244;1256;60479;-57
2024/03/04 08:33:59;;;;;;;21.10;16.10;;;;;;;8.64;47.23;100886.37;108768;1254;58881;-60
2024/03/04 08:36:26;;;;;;;15.50;7.70;;;;;;;8.68;47.22;100885.55;108770;1253;63718;-57
2024/03/04 08:38:54;;;;;;;25.10;17.60;;;;;;;8.73;47.16;100887.36;106755;1252;61603;-60
2024/03/04 08:41:24;;;;;;;13.40;8.00;;;;;;;8.79;47.08;100888.89;104329;1259;62552;-62
2024/03/04 08:43:51;;;;;;;25.60;17.00;;;;;;;8.85;47.17;100885.39;104388;1254;60515;-56
2024/03/04 08:46:19;;;;;;;13.30;7.00;;;;;;;8.90;46.84;100881.34;104219;1254;62835;-58
2024/03/04 08:48:47;;;;;;;24.10;16.40;;;;;;;8.96;46.67;100877.67;104357;1253;64974;-58
2024/03/04 08:51:17;;;;;;;13.00;7.50;;;;;;;8.99;46.70;100877.44;104380;1253;61560;-58
2024/03/04 08:53:45;;;;;;;14.30;7.30;;;;;;;9.04;46.59;100883.62;108862;1253;62560;-59
2024/03/04 08:56:13;;;;;;;22.60;15.70;;;;;;;9.08;46.24;100882.59;105537;1254;59451;-58
2024/03/04 08:58:41;;;;;;;13.50;7.30;;;;;;;9.14;46.29;100879.60;104481;1254;60454;-59
2024/03/04 09:01:09;;;;;;;22.10;16.30;;;;;;;9.19;45.96;100880.67;108762;1253;67528;-57
2024/03/04 09:03:40;;;;;;;15.60;7.50;;;;;;;9.24;45.71;100877.89;108801;1253;60282;-58
2024/03/04 09:06:17;;;;;;;23.40;16.70;;;;;;;9.32;45.63;100878.43;108881;1254;63841;-58
2024/03/04 09:08:46;;;;;;;16.40;7.70;;;;;;;9.41;45.28;100880.97;107752;1252;60430;-59
2024/03/04 09:11:14;;;;;;;23.40;15.00;;;;;;;9.49;45.27;100880.95;108593;1254;59409;-58
2024/03/04 09:13:42;;;;;;;14.80;6.80;;;;;;;9.58;45.08;100883.17;108733;1254;63859;-58
2024/03/04 09:16:10;;;;;;;24.50;14.90;;;;;;;9.68;45.04;100883.02;108812;1254;61714;-60
2024/03/04 09:18:41;;;;;;;10.90;5.60;;;;;;;9.78;45.03;100881.48;108776;1254;62707;-59
2024/03/04 09:21:08;;;;;;;21.10;13.90;;;;;;;9.90;44.91;100879.06;108710;1254;58515;-59
2024/03/04 09:23:42;;;;;;;15.50;6.50;;;;;;;10.00;44.02;100871.52;108740;1253;59059;-59
2024/03/04 09:26:09;;;;;;;18.30;12.80;;;;;;;10.08;43.58;100870.30;108727;1254;63736;-58
2024/03/04 09:28:37;;;;;;;18.30;11.70;;;;;;;10.15;43.60;100869.77;108743;1254;61982;-59
2024/03/04 09:31:05;;;;;;;14.60;5.60;;;;;;;10.23;43.47;100865.70;108882;1254;62707;-58
2024/03/04 09:33:33;;;;;;;20.20;11.80;;;;;;;10.30;43.39;100862.75;104615;1258;61983;-58
2024/03/04 09:36:00;;;;;;;18.10;11.40;;;;;;;10.49;42.92;100857.95;104372;1254;60556;-59
2024/03/04 09:38:28;;;;;;;18.20;12.60;;;;;;;10.59;42.82;100857.55;104250;1254;63800;-56
2024/03/04 09:40:56;;;;;;;10.30;5.10;;;;;;;10.66;42.77;100856.23;104215;1254;62007;-58
2024/03/04 09:43:27;;;;;;;18.00;12.30;;;;;;;10.73;42.76;100852.16;108708;1253;64239;-59
2024/03/04 09:45:56;;;;;;;16.30;11.90;;;;;;;10.77;42.86;100859.21;108711;1254;59139;-60
2024/03/04 09:48:27;;;;;;;12.00;5.30;;;;;;;10.86;42.66;100858.98;108617;1254;59178;-54
2024/03/04 09:50:55;;;;;;;16.10;11.60;;;;;;;10.96;42.47;100858.20;108782;1259;63741;-59
2024/03/04 09:53:22;;;;;;;21.70;12.30;;;;;;;11.01;42.27;100855.71;106926;1261;60273;-56
2024/03/04 09:55:50;;;;;;;18.50;13.10;;;;;;;10.93;42.03;100854.92;104251;1259;62526;-56
2024/03/04 09:58:18;;;;;;;17.00;11.80;;;;;;;10.91;42.14;100852.91;104321;1256;60771;-56
2024/03/04 10:00:46;;;;;;;11.90;5.60;;;;;;;10.93;42.25;100845.59;104364;1254;61079;-60
2024/03/04 10:03:13;;;;;;;20.30;11.60;;;;;;;10.97;42.38;100847.40;104201;1256;64511;-59
2024/03/04 10:05:42;;;;;;;16.40;11.40;;;;;;;11.01;42.25;100846.25;108504;1254;60482;-59
2024/03/04 10:08:09;;;;;;;18.80;12.40;;;;;;;11.07;42.19;100841.73;108714;1254;63877;-60
2024/03/04 10:10:37;;;;;;;16.60;11.40;;;;;;;11.15;42.31;100842.23;104326;1254;60535;-60
2024/03/04 10:13:10;;;;;;;19.80;12.80;;;;;;;11.23;42.20;100841.45;108583;1254;58797;-59
2024/03/04 10:15:38;;;;;;;14.60;11.40;;;;;;;11.30;42.07;100841.40;104357;1259;65814;-59
2024/03/04 10:18:12;;;;;;;17.00;11.90;;;;;;;11.38;41.89;100844.89;104308;1258;60540;-58
2024/03/04 10:20:40;;;;;;;17.00;11.20;;;;;;;11.47;41.87;100845.98;104212;1254;64781;-59
2024/03/04 10:23:08;;;;;;;9.30;5.40;;;;;;;11.56;41.75;100846.28;104322;1254;61059;-59
2024/03/04 10:25:36;;;;;;;21.20;13.10;;;;;;;11.63;41.34;100843.48;104441;1254;60545;-62
2024/03/04 10:28:07;;;;;;;20.10;12.30;;;;;;;11.68;41.07;100838.56;104389;1254;64210;-60
2024/03/04 10:30:35;;;;;;;15.50;11.50;;;;;;;11.70;40.94;100837.52;104380;1257;61072;-58
2024/03/04 10:33:03;;;;;;;18.30;11.40;;;;;;;11.74;41.09;100838.98;104372;1259;66490;-60
2024/03/04 10:35:31;;;;;;;16.90;12.20;;;;;;;11.81;41.03;100835.42;104967;1254;60669;-62
2024/03/04 10:38:02;;;;;;;16.10;11.10;;;;;;;11.89;40.92;100834.85;108818;1254;62200;-61
2024/03/04 10:40:33;;;;;;;15.50;10.40;;;;;;;11.95;40.82;100831.41;104711;1257;66123;-60
2024/03/04 10:43:03;;;;;;;14.60;10.90;;;;;;;12.02;40.79;100830.15;108758;1254;60257;-55
2024/03/04 10:45:33;;;;;;;16.00;10.60;;;;;;;12.11;40.66;100827.84;106489;1258;62953;-57
2024/03/04 10:48:01;;;;;;;15.50;10.80;;;;;;;12.23;40.68;100825.48;105743;1254;61288;-58
2024/03/04 10:50:30;;;;;;;16.10;10.80;;;;;;;12.35;40.39;100818.39;108706;1254;60820;-59
2024/03/04 10:52:57;;;;;;;14.70;10.40;;;;;;;12.43;39.78;100816.45;108784;1254;65036;-61
2024/03/04 10:55:30;;;;;;;15.20;10.70;;;;;;;12.49;39.75;100813.89;104988;1254;61511;-61
2024/03/04 10:58:01;;;;;;;15.70;10.10;;;;;;;12.57;39.74;100810.63;108484;1254;62536;-59
2024/03/04 11:00:31;;;;;;;15.50;10.20;;;;;;;12.64;39.57;100810.23;108723;1257;60593;-60
2024/03/04 11:02:59;;;;;;;15.70;11.00;;;;;;;12.71;39.48;100807.16;108740;1253;58831;-58
2024/03/04 11:05:30;;;;;;;15.70;10.60;;;;;;;12.76;39.37;100804.67;108734;1253;65125;-58
2024/03/04 11:08:04;;;;;;;18.80;11.00;;;;;;;12.79;39.14;100804.75;108733;1252;61504;-58
2024/03/04 11:10:45;;;;;;;17.60;10.90;;;;;;;12.85;39.07;100806.00;106526;1256;63745;-58
2024/03/04 11:13:19;;;;;;;20.10;11.80;;;;;;;12.91;39.06;100803.95;104203;1259;60575;-59
2024/03/04 11:15:56;;;;;;;15.30;10.70;;;;;;;12.96;38.93;100800.91;104312;1254;60485;-59
2024/03/04 11:19:14;;;;;;;16.40;10.30;;;;;;;12.99;38.66;100796.03;104276;1253;63704;-58
2024/03/04 11:21:42;;;;;;;15.40;11.10;;;;;;;13.02;38.60;100800.41;108611;1253;60237;-60
2024/03/04 11:24:10;;;;;;;17.00;10.40;;;;;;;13.03;38.67;100796.13;107197;1254;67536;-60
2024/03/04 11:26:37;;;;;;;15.00;10.90;;;;;;;13.08;38.79;100797.29;104239;1254;60508;-60